Time;durP1;ratioP1;P1;durP2;ratioP2;P2;SDS_P1;SDS_P2;PMS_P1;PMS_P2;Temp;Humidity;BMP_temperature;BMP_pressure;BME280_temperature;BME280_humidity;BME280_pressure;Samples;Min_cycle;Max_cycle;Signal;HPM_P1;HPM_P2
2023/02/11 00:00:17;;;;;;;39.25;21.92;;;;;;;;;;5070113;28;20475;-48
2023/02/11 00:02:43;;;;;;;40.75;21.40;;;;;;;;;;5084352;28;20087;-47
2023/02/11 00:05:09;;;;;;;40.30;22.35;;;;;;;;;;5087354;28;20032;-48
2023/02/11 00:07:36;;;;;;;37.30;21.50;;;;;;;;;;5071064;28;20031;-47
2023/02/11 00:10:02;;;;;;;41.42;22.65;;;;;;;;;;5067065;28;20420;-52
2023/02/11 00:12:29;;;;;;;39.95;22.88;;;;;;;;;;5066821;28;20087;-47
2023/02/11 00:14:56;;;;;;;42.05;23.17;;;;;;;;;;5080896;28;20605;-48
2023/02/11 00:17:22;;;;;;;46.28;23.95;;;;;;;;;;5087601;28;20020;-49
2023/02/11 00:19:51;;;;;;;43.53;23.35;;;;;;;;;;5088418;28;20077;-50
2023/02/11 00:22:17;;;;;;;43.55;24.30;;;;;;;;;;5088687;28;20036;-48
2023/02/11 00:24:43;;;;;;;48.08;25.25;;;;;;;;;;5088081;28;20028;-50
2023/02/11 00:27:09;;;;;;;44.03;24.92;;;;;;;;;;5088205;28;20058;-48
2023/02/11 00:29:39;;;;;;;48.65;26.02;;;;;;;;;;5088060;28;20055;-47
2023/02/11 00:32:05;;;;;;;47.33;26.17;;;;;;;;;;5087779;28;20080;-47
2023/02/11 00:34:32;;;;;;;51.58;27.10;;;;;;;;;;5087739;28;20020;-50
2023/02/11 00:36:58;;;;;;;46.75;25.58;;;;;;;;;;5088094;28;20134;-48
2023/02/11 00:39:25;;;;;;;48.72;26.30;;;;;;;;;;5087964;28;20039;-48
2023/02/11 00:41:51;;;;;;;50.33;27.17;;;;;;;;;;5087897;28;20032;-48
2023/02/11 00:44:17;;;;;;;55.53;28.75;;;;;;;;;;5088342;28;20020;-51
2023/02/11 00:46:43;;;;;;;51.47;26.30;;;;;;;;;;5087678;28;20869;-49
2023/02/11 00:49:09;;;;;;;55.60;27.75;;;;;;;;;;5087543;28;20016;-48
2023/02/11 00:51:36;;;;;;;54.97;27.75;;;;;;;;;;5087930;28;20032;-48
2023/02/11 00:54:02;;;;;;;50.92;26.55;;;;;;;;;;5087594;28;20031;-48
2023/02/11 00:56:29;;;;;;;45.90;24.38;;;;;;;;;;5088138;28;20024;-47
2023/02/11 00:58:54;;;;;;;43.60;24.10;;;;;;;;;;5087794;28;20100;-48
2023/02/11 01:01:20;;;;;;;45.67;24.02;;;;;;;;;;5088081;28;20566;-50
2023/02/11 01:03:47;;;;;;;45.30;23.98;;;;;;;;;;5087602;28;20024;-47
2023/02/11 06:14:04;;;;;;;45.45;23.65;;;;;;;;;;5085790;28;20174;-49
2023/02/11 06:16:30;;;;;;;49.10;26.20;;;;;;;;;;5087793;28;20050;-46
2023/02/11 06:18:56;;;;;;;50.08;26.13;;;;;;;;;;5088399;28;20488;-47
2023/02/11 06:21:22;;;;;;;50.25;26.60;;;;;;;;;;5087867;28;20016;-48
2023/02/11 06:23:48;;;;;;;49.75;26.80;;;;;;;;;;5087197;28;20071;-47
2023/02/11 06:26:19;;;;;;;49.58;26.27;;;;;;;;;;5087568;28;20146;-48
2023/02/11 06:28:45;;;;;;;51.05;27.15;;;;;;;;;;5087263;28;20392;-47
2023/02/11 06:31:11;;;;;;;49.53;25.98;;;;;;;;;;5087536;28;20618;-47
2023/02/11 06:33:37;;;;;;;49.88;26.98;;;;;;;;;;5087441;28;20047;-47
2023/02/11 06:36:04;;;;;;;49.28;26.80;;;;;;;;;;5087398;28;20105;-46
2023/02/11 06:38:30;;;;;;;48.42;26.08;;;;;;;;;;5087511;28;20105;-47
2023/02/11 06:40:56;;;;;;;48.97;26.33;;;;;;;;;;5082941;28;20035;-47
2023/02/11 06:43:22;;;;;;;50.92;27.67;;;;;;;;;;5088244;28;20133;-49
2023/02/11 06:45:54;;;;;;;45.92;25.58;;;;;;;;;;5087900;28;20051;-47
2023/02/11 06:48:21;;;;;;;52.00;26.77;;;;;;;;;;5087621;28;20391;-47
2023/02/11 06:50:47;;;;;;;45.03;23.98;;;;;;;;;;5088632;28;20617;-48
2023/02/11 06:53:13;;;;;;;44.58;24.48;;;;;;;;;;5087967;28;20020;-47
2023/02/11 06:55:39;;;;;;;41.33;23.15;;;;;;;;;;5095891;28;20434;-48
2023/02/11 06:58:05;;;;;;;54.95;28.38;;;;;;;;;;5087689;28;20479;-48
2023/02/11 07:00:31;;;;;;;50.88;28.92;;;;;;;;;;5088787;28;20032;-47
2023/02/11 07:02:57;;;;;;;55.55;29.13;;;;;;;;;;5088477;28;20382;-48
2023/02/11 07:05:23;;;;;;;50.33;27.35;;;;;;;;;;5088423;28;20024;-49
2023/02/11 07:07:49;;;;;;;53.67;28.42;;;;;;;;;;5088484;28;20070;-48
2023/02/11 07:10:15;;;;;;;49.15;26.92;;;;;;;;;;5088537;28;20016;-51
2023/02/11 07:12:41;;;;;;;51.40;26.83;;;;;;;;;;5087451;28;20548;-49
2023/02/11 07:15:07;;;;;;;50.55;27.13;;;;;;;;;;5088298;28;20114;-48
2023/02/11 07:17:34;;;;;;;48.58;26.27;;;;;;;;;;5088056;28;20360;-50
2023/02/11 07:20:00;;;;;;;50.05;27.48;;;;;;;;;;5088376;28;20777;-47
2023/02/11 07:22:26;;;;;;;47.85;25.80;;;;;;;;;;5088303;28;20067;-47
2023/02/11 07:24:52;;;;;;;45.75;25.15;;;;;;;;;;5088025;28;20066;-48
2023/02/11 07:27:18;;;;;;;44.15;24.02;;;;;;;;;;5087271;28;20063;-47
2023/02/11 07:29:45;;;;;;;43.50;23.95;;;;;;;;;;5068998;28;20750;-48
2023/02/11 07:32:12;;;;;;;41.63;22.98;;;;;;;;;;5087775;28;20403;-51
2023/02/11 07:34:38;;;;;;;44.47;23.95;;;;;;;;;;5087506;28;20479;-48
2023/02/11 07:37:04;;;;;;;43.63;22.45;;;;;;;;;;5075733;28;20029;-50
2023/02/11 07:39:30;;;;;;;45.45;23.20;;;;;;;;;;5086335;28;20032;-48
2023/02/11 07:41:57;;;;;;;45.60;24.67;;;;;;;;;;5078549;28;20713;-48
2023/02/11 07:44:23;;;;;;;45.40;24.80;;;;;;;;;;5083175;28;20024;-48
2023/02/11 07:46:49;;;;;;;50.88;26.75;;;;;;;;;;5087904;28;20083;-47
2023/02/11 07:49:15;;;;;;;44.83;24.63;;;;;;;;;;5089297;28;20078;-48
2023/02/11 07:51:41;;;;;;;48.28;24.58;;;;;;;;;;5085330;28;20414;-48
2023/02/11 07:54:08;;;;;;;44.38;24.95;;;;;;;;;;5083665;28;20567;-47
2023/02/11 07:56:34;;;;;;;46.33;24.92;;;;;;;;;;5089119;28;20053;-48
2023/02/11 07:59:02;;;;;;;46.28;24.88;;;;;;;;;;5086835;28;20478;-50
2023/02/11 08:01:28;;;;;;;47.33;24.48;;;;;;;;;;5086765;28;20032;-47
2023/02/11 08:03:57;;;;;;;46.10;24.73;;;;;;;;;;5086683;28;20047;-48
2023/02/11 08:06:25;;;;;;;46.72;24.63;;;;;;;;;;5088257;28;20360;-47
2023/02/11 08:08:51;;;;;;;44.33;24.92;;;;;;;;;;5081535;28;20028;-49
2023/02/11 08:11:18;;;;;;;45.78;25.45;;;;;;;;;;5082300;28;20059;-49
2023/02/11 08:13:44;;;;;;;48.60;26.50;;;;;;;;;;5087983;28;20035;-49
2023/02/11 08:16:24;;;;;;;49.85;27.38;;;;;;;;;;5083550;28;20036;-47
2023/02/11 08:18:51;;;;;;;54.55;25.90;;;;;;;;;;5086817;28;20032;-49
2023/02/11 08:21:17;;;;;;;50.70;26.65;;;;;;;;;;5091558;28;20032;-50
2023/02/11 08:23:44;;;;;;;51.70;28.02;;;;;;;;;;5091208;28;20024;-48
2023/02/11 08:26:14;;;;;;;49.65;26.35;;;;;;;;;;5087490;28;20039;-47
2023/02/11 08:28:41;;;;;;;48.75;26.27;;;;;;;;;;5091376;28;20036;-50
2023/02/11 08:31:12;;;;;;;48.10;26.08;;;;;;;;;;5091579;28;20039;-50
2023/02/11 08:33:39;;;;;;;48.28;26.42;;;;;;;;;;5091323;28;20016;-48
2023/02/11 08:36:09;;;;;;;48.95;26.15;;;;;;;;;;5091071;28;20384;-51
2023/02/11 08:38:35;;;;;;;48.45;25.70;;;;;;;;;;5091389;28;20027;-48
2023/02/11 08:41:01;;;;;;;47.58;24.95;;;;;;;;;;5090950;28;20024;-47
2023/02/11 08:43:28;;;;;;;46.25;25.70;;;;;;;;;;5091095;28;20552;-48
2023/02/11 08:45:54;;;;;;;43.50;24.33;;;;;;;;;;5091277;28;20024;-48
2023/02/11 08:48:20;;;;;;;46.88;23.83;;;;;;;;;;5090494;28;20081;-47
2023/02/11 08:50:46;;;;;;;43.75;23.35;;;;;;;;;;5090725;28;20028;-48
2023/02/11 08:53:12;;;;;;;42.97;23.30;;;;;;;;;;5090834;28;20020;-51
2023/02/11 08:55:38;;;;;;;41.00;22.33;;;;;;;;;;5090725;28;20552;-48
2023/02/11 08:58:04;;;;;;;39.92;22.23;;;;;;;;;;5088787;28;20026;-48
2023/02/11 09:00:30;;;;;;;39.70;20.40;;;;;;;;;;5089397;28;20039;-48
2023/02/11 09:02:57;;;;;;;39.08;21.48;;;;;;;;;;5089300;28;20264;-48
2023/02/11 09:05:26;;;;;;;38.20;21.33;;;;;;;;;;5088277;28;20028;-47
2023/02/11 09:07:52;;;;;;;36.78;20.55;;;;;;;;;;5089303;28;20435;-48
2023/02/11 09:10:18;;;;;;;40.05;21.73;;;;;;;;;;5089105;28;20162;-49
2023/02/11 09:12:45;;;;;;;37.35;20.98;;;;;;;;;;5089039;28;20020;-50
2023/02/11 09:15:11;;;;;;;37.50;20.13;;;;;;;;;;5070708;28;20036;-48
2023/02/11 09:17:37;;;;;;;33.70;18.27;;;;;;;;;;5090623;28;20177;-46
2023/02/11 09:20:03;;;;;;;34.25;18.30;;;;;;;;;;5090552;28;20055;-48
2023/02/11 09:22:29;;;;;;;33.30;17.95;;;;;;;;;;5090740;28;20020;-47
2023/02/11 09:24:55;;;;;;;32.03;19.08;;;;;;;;;;5088309;28;20498;-48
2023/02/11 09:27:21;;;;;;;35.33;19.80;;;;;;;;;;5089889;28;20463;-47
2023/02/11 09:29:47;;;;;;;35.92;19.92;;;;;;;;;;5090360;28;20472;-47
2023/02/11 09:32:13;;;;;;;39.47;20.77;;;;;;;;;;5081293;28;20078;-50
2023/02/11 09:34:39;;;;;;;35.05;18.92;;;;;;;;;;5082016;28;20085;-47
2023/02/11 09:37:06;;;;;;;31.60;18.70;;;;;;;;;;5086140;28;20538;-51
2023/02/11 09:39:32;;;;;;;37.22;20.00;;;;;;;;;;5074028;28;20038;-49
2023/02/11 09:42:07;;;;;;;29.98;17.33;;;;;;;;;;5088384;28;20186;-48
2023/02/11 09:44:34;;;;;;;29.10;16.35;;;;;;;;;;5087071;28;20027;-47
2023/02/11 09:47:02;;;;;;;27.27;15.50;;;;;;;;;;5088881;28;20077;-50
2023/02/11 09:49:38;;;;;;;26.67;15.02;;;;;;;;;;5088024;28;20106;-48
2023/02/11 09:52:06;;;;;;;28.83;15.68;;;;;;;;;;5088137;28;20448;-50
2023/02/11 09:54:58;;;;;;;26.67;15.68;;;;;;;;;;5088168;28;20439;-51
2023/02/11 09:57:35;;;;;;;29.75;17.27;;;;;;;;;;5083411;28;20032;-48
2023/02/11 10:00:15;;;;;;;32.53;17.88;;;;;;;;;;5088343;28;20036;-47
2023/02/11 10:02:51;;;;;;;31.38;17.67;;;;;;;;;;5088107;28;20028;-51
2023/02/11 10:05:33;;;;;;;34.30;19.38;;;;;;;;;;5087752;28;20093;-50
2023/02/11 10:08:08;;;;;;;31.00;17.95;;;;;;;;;;5088450;28;20055;-48
2023/02/11 10:10:34;;;;;;;37.10;18.05;;;;;;;;;;5087800;28;20027;-51
2023/02/11 10:13:10;;;;;;;34.60;19.25;;;;;;;;;;5088343;28;20438;-48
2023/02/11 10:15:36;;;;;;;30.80;17.25;;;;;;;;;;5087806;28;20044;-49
2023/02/11 10:18:02;;;;;;;29.90;16.65;;;;;;;;;;5087840;28;20055;-51
2023/02/11 10:20:34;;;;;;;28.25;16.45;;;;;;;;;;5088160;28;20040;-49
2023/02/11 10:23:02;;;;;;;28.33;15.45;;;;;;;;;;5088110;28;20028;-49
2023/02/11 10:25:35;;;;;;;23.95;13.95;;;;;;;;;;5087842;28;20036;-48
2023/02/11 10:28:11;;;;;;;24.90;14.70;;;;;;;;;;5087372;28;20020;-48
2023/02/11 10:30:59;;;;;;;22.83;12.98;;;;;;;;;;5087788;28;20052;-49
2023/02/11 10:33:28;;;;;;;24.38;13.40;;;;;;;;;;5087347;28;20430;-48
2023/02/11 10:35:54;;;;;;;24.60;14.50;;;;;;;;;;5087478;28;20107;-49
2023/02/11 10:38:20;;;;;;;23.00;13.27;;;;;;;;;;5087684;28;20551;-48
2023/02/11 10:40:46;;;;;;;23.80;14.10;;;;;;;;;;5086762;28;20035;-49
2023/02/11 10:43:14;;;;;;;23.88;13.60;;;;;;;;;;5087260;28;20020;-49
2023/02/11 10:45:53;;;;;;;23.17;13.57;;;;;;;;;;5087325;28;20039;-47
2023/02/11 10:48:38;;;;;;;21.05;12.88;;;;;;;;;;5087280;28;20052;-52
2023/02/11 10:51:10;;;;;;;23.60;13.82;;;;;;;;;;5087634;28;20530;-47
2023/02/11 10:53:36;;;;;;;24.83;14.13;;;;;;;;;;5087562;28;20394;-47
2023/02/11 10:56:03;;;;;;;24.35;14.15;;;;;;;;;;5087082;28;20039;-50
2023/02/11 10:58:46;;;;;;;32.88;18.30;;;;;;;;;;5087499;28;20023;-49
2023/02/11 11:01:13;;;;;;;33.83;17.95;;;;;;;;;;5087189;28;20035;-48
2023/02/11 11:03:45;;;;;;;29.30;17.08;;;;;;;;;;5086854;28;20059;-47
2023/02/11 11:06:11;;;;;;;28.90;16.17;;;;;;;;;;5086911;28;20024;-49
2023/02/11 11:08:43;;;;;;;25.77;15.88;;;;;;;;;;5087092;28;20743;-47
2023/02/11 11:11:11;;;;;;;28.35;16.60;;;;;;;;;;5087067;28;20475;-47
2023/02/11 11:13:42;;;;;;;31.10;17.77;;;;;;;;;;5086949;28;20016;-47
2023/02/11 11:16:14;;;;;;;28.48;17.38;;;;;;;;;;5086562;28;20035;-49
2023/02/11 11:18:42;;;;;;;28.67;17.67;;;;;;;;;;5087041;28;20402;-48
2023/02/11 11:21:25;;;;;;;27.20;16.30;;;;;;;;;;5068787;28;20423;-48
2023/02/11 11:23:54;;;;;;;27.90;15.77;;;;;;;;;;5086894;28;20032;-51
2023/02/11 11:26:21;;;;;;;26.00;15.27;;;;;;;;;;5086600;28;20450;-48
2023/02/11 11:28:55;;;;;;;22.35;13.25;;;;;;;;;;5086864;28;20020;-51
2023/02/11 11:31:33;;;;;;;22.58;12.95;;;;;;;;;;5086746;28;20055;-48
2023/02/11 11:34:00;;;;;;;21.65;12.55;;;;;;;;;;5087576;28;20024;-49
2023/02/11 11:36:34;;;;;;;22.10;13.38;;;;;;;;;;5087724;28;20028;-50
2023/02/11 11:39:03;;;;;;;24.05;13.27;;;;;;;;;;5087236;28;20074;-48
2023/02/11 11:41:30;;;;;;;23.92;13.25;;;;;;;;;;5087122;28;20440;-49
2023/02/11 11:44:21;;;;;;;21.60;13.10;;;;;;;;;;5088580;28;20046;-50
2023/02/11 11:46:48;;;;;;;22.33;13.35;;;;;;;;;;5088357;28;20032;-48
2023/02/11 11:49:17;;;;;;;21.67;13.07;;;;;;;;;;5088436;28;20027;-50
2023/02/11 11:51:47;;;;;;;24.27;14.05;;;;;;;;;;5089289;28;20024;-49
2023/02/11 11:54:15;;;;;;;24.52;13.75;;;;;;;;;;5092050;28;20499;-49
2023/02/11 11:56:51;;;;;;;21.25;12.18;;;;;;;;;;5091903;28;20046;-48
2023/02/11 11:59:17;;;;;;;21.23;12.52;;;;;;;;;;5091354;28;20386;-49
2023/02/11 12:01:43;;;;;;;24.88;14.65;;;;;;;;;;5093930;28;20049;-47
2023/02/11 12:04:25;;;;;;;27.05;15.50;;;;;;;;;;5091440;28;20111;-48
2023/02/11 12:06:57;;;;;;;26.65;14.93;;;;;;;;;;5090750;28;20131;-47
2023/02/11 12:09:32;;;;;;;22.08;13.95;;;;;;;;;;5090535;28;20031;-46
2023/02/11 12:12:16;;;;;;;22.90;13.93;;;;;;;;;;5072574;28;20031;-48
2023/02/11 12:15:01;;;;;;;23.77;13.68;;;;;;;;;;5082779;28;20032;-49
2023/02/11 12:17:45;;;;;;;22.33;13.90;;;;;;;;;;5090838;28;20139;-46
2023/02/11 12:20:44;;;;;;;22.40;13.80;;;;;;;;;;5090000;28;20046;-49
2023/02/11 12:23:29;;;;;;;24.88;14.65;;;;;;;;;;5046551;28;20056;-49
2023/02/11 12:26:12;;;;;;;24.52;15.00;;;;;;;;;;5090375;28;20085;-49
2023/02/11 12:28:56;;;;;;;22.15;13.82;;;;;;;;;;5090685;28;20111;-49
2023/02/11 12:31:22;;;;;;;22.95;13.82;;;;;;;;;;5090326;28;20036;-47
2023/02/11 12:34:17;;;;;;;19.90;12.93;;;;;;;;;;5090797;28;20048;-50
2023/02/11 12:36:53;;;;;;;19.10;11.82;;;;;;;;;;5090774;28;20772;-47
2023/02/11 12:39:25;;;;;;;20.83;13.32;;;;;;;;;;5090560;28;20108;-48
2023/02/11 12:44:51;;;;;;;20.75;13.18;;;;;;;;;;5070398;28;20040;-50
2023/02/11 12:47:20;;;;;;;19.27;12.45;;;;;;;;;;5069750;28;20537;-48
2023/02/11 12:49:46;;;;;;;19.90;12.32;;;;;;;;;;5070400;28;20094;-49
2023/02/11 12:52:12;;;;;;;20.55;12.88;;;;;;;;;;5062936;28;20062;-47
2023/02/11 12:54:41;;;;;;;19.83;12.60;;;;;;;;;;5090086;28;20028;-46
2023/02/11 12:57:10;;;;;;;20.70;13.57;;;;;;;;;;5089684;28;20028;-48
2023/02/11 13:00:01;;;;;;;20.15;13.05;;;;;;;;;;5090142;28;20418;-49
2023/02/11 13:02:27;;;;;;;23.17;14.23;;;;;;;;;;5089743;28;20498;-46
2023/02/11 13:04:56;;;;;;;23.63;14.75;;;;;;;;;;5090391;28;20059;-49
2023/02/11 13:07:32;;;;;;;20.48;13.52;;;;;;;;;;5089712;28;20028;-49
2023/02/11 13:10:25;;;;;;;20.73;13.35;;;;;;;;;;5072203;28;20601;-50
2023/02/11 13:15:37;;;;;;;22.17;14.13;;;;;;;;;;5088961;28;20035;-51
2023/02/11 13:18:06;;;;;;;20.05;12.95;;;;;;;;;;5087919;28;20130;-49
2023/02/11 13:20:43;;;;;;;19.38;12.57;;;;;;;;;;5087869;28;20035;-52
2023/02/11 13:23:27;;;;;;;17.85;11.93;;;;;;;;;;5068677;28;20081;-51
2023/02/11 13:25:56;;;;;;;21.92;14.75;;;;;;;;;;5068771;28;20039;-49
2023/02/11 13:28:27;;;;;;;23.63;14.27;;;;;;;;;;5105056;28;20553;-49
2023/02/11 13:31:01;;;;;;;21.65;13.80;;;;;;;;;;5080847;28;20013;-53
2023/02/11 13:33:32;;;;;;;21.13;12.98;;;;;;;;;;5088188;28;20296;-47
2023/02/11 13:35:58;;;;;;;21.75;13.32;;;;;;;;;;5087960;28;20394;-51
2023/02/11 13:38:28;;;;;;;20.63;12.63;;;;;;;;;;5087618;28;20035;-49
2023/02/11 13:41:06;;;;;;;21.42;13.38;;;;;;;;;;5084438;28;20065;-52
2023/02/11 13:43:34;;;;;;;20.52;12.80;;;;;;;;;;5078560;28;20118;-49
2023/02/11 13:46:01;;;;;;;16.35;11.13;;;;;;;;;;5087108;28;20022;-49
2023/02/11 13:48:29;;;;;;;17.42;11.20;;;;;;;;;;5067541;28;20024;-50
2023/02/11 13:50:57;;;;;;;16.40;10.52;;;;;;;;;;5086055;28;20024;-48
2023/02/11 13:53:23;;;;;;;18.17;11.55;;;;;;;;;;5087291;28;20437;-52
2023/02/11 13:55:51;;;;;;;17.88;11.57;;;;;;;;;;5064105;28;20020;-53
2023/02/11 13:58:33;;;;;;;17.25;10.70;;;;;;;;;;5084667;28;20036;-49
2023/02/11 14:00:59;;;;;;;16.13;10.45;;;;;;;;;;5070388;28;20051;-49
2023/02/11 14:09:29;;;;;;;16.10;10.32;;;;;;;;;;5084855;28;20027;-52
2023/02/11 14:12:14;;;;;;;15.20;9.82;;;;;;;;;;5083054;28;20169;-52
2023/02/11 14:15:00;;;;;;;16.23;10.43;;;;;;;;;;5096085;28;20033;-50
2023/02/11 14:17:33;;;;;;;14.27;9.60;;;;;;;;;;5065020;28;20511;-50
2023/02/11 14:20:00;;;;;;;13.80;9.47;;;;;;;;;;5084278;28;20580;-51
2023/02/11 14:22:53;;;;;;;15.88;10.30;;;;;;;;;;5084461;28;20040;-51
2023/02/11 14:25:22;;;;;;;14.80;9.25;;;;;;;;;;5074656;28;20035;-51
2023/02/11 14:27:59;;;;;;;15.27;9.93;;;;;;;;;;5084594;28;20459;-49
2023/02/11 14:30:28;;;;;;;21.17;12.05;;;;;;;;;;5084191;28;20562;-49
2023/02/11 14:33:13;;;;;;;18.50;11.77;;;;;;;;;;5084072;28;20059;-51
2023/02/11 14:35:46;;;;;;;16.38;10.63;;;;;;;;;;5084018;28;20234;-49
2023/02/11 14:38:33;;;;;;;19.48;12.65;;;;;;;;;;5084081;28;20051;-51
2023/02/11 14:40:59;;;;;;;19.27;12.32;;;;;;;;;;5067783;28;20089;-51
2023/02/11 14:43:27;;;;;;;18.25;11.65;;;;;;;;;;5084311;28;20032;-51
2023/02/11 14:45:55;;;;;;;17.95;11.65;;;;;;;;;;5084562;28;20668;-52
2023/02/11 14:48:25;;;;;;;17.92;11.25;;;;;;;;;;5083287;28;20016;-50
2023/02/11 14:50:53;;;;;;;16.92;10.90;;;;;;;;;;5083365;28;20087;-50
2023/02/11 14:53:24;;;;;;;14.52;9.52;;;;;;;;;;5084122;28;20023;-51
2023/02/11 14:55:52;;;;;;;15.85;10.38;;;;;;;;;;5084057;28;20032;-53
2023/02/11 14:58:20;;;;;;;18.08;10.70;;;;;;;;;;5065556;28;20024;-50
2023/02/11 15:00:47;;;;;;;17.70;10.95;;;;;;;;;;5084132;28;20089;-52
2023/02/11 15:03:25;;;;;;;20.67;13.02;;;;;;;;;;5083466;28;20035;-49
2023/02/11 15:05:55;;;;;;;18.73;12.40;;;;;;;;;;5083453;28;20099;-52
2023/02/11 15:08:21;;;;;;;20.13;12.57;;;;;;;;;;5084386;28;20093;-52
2023/02/11 15:10:47;;;;;;;19.58;12.13;;;;;;;;;;5084051;28;20027;-53
2023/02/11 15:13:18;;;;;;;20.13;12.65;;;;;;;;;;5083756;28;20030;-52
2023/02/11 15:15:45;;;;;;;20.52;13.80;;;;;;;;;;5084423;28;20097;-53
2023/02/11 15:18:15;;;;;;;17.33;11.82;;;;;;;;;;5081810;28;20024;-49
2023/02/11 15:20:41;;;;;;;19.40;12.82;;;;;;;;;;5083110;28;20024;-49
2023/02/11 15:23:14;;;;;;;20.65;13.13;;;;;;;;;;5083302;28;20097;-49
2023/02/11 15:25:50;;;;;;;19.27;12.63;;;;;;;;;;5076446;28;20045;-53
2023/02/11 15:28:22;;;;;;;19.52;12.70;;;;;;;;;;5071933;28;20054;-53
2023/02/11 15:30:55;;;;;;;18.80;12.73;;;;;;;;;;5067749;28;20027;-52
2023/02/11 15:33:24;;;;;;;21.25;13.77;;;;;;;;;;5086566;28;20020;-52
2023/02/11 15:35:50;;;;;;;22.58;14.50;;;;;;;;;;5086604;28;20028;-52
2023/02/11 15:38:17;;;;;;;19.90;14.13;;;;;;;;;;5086207;28;20035;-52
2023/02/11 15:40:51;;;;;;;18.08;12.43;;;;;;;;;;5072489;28;20090;-53
2023/02/11 15:43:17;;;;;;;18.55;12.10;;;;;;;;;;5082402;28;20032;-50
2023/02/11 15:46:01;;;;;;;20.33;12.57;;;;;;;;;;5089722;28;20128;-53
2023/02/11 15:48:33;;;;;;;19.53;13.40;;;;;;;;;;5077995;28;20020;-52
2023/02/11 15:51:02;;;;;;;18.05;12.10;;;;;;;;;;5088280;28;20024;-49
2023/02/11 15:53:28;;;;;;;17.83;12.07;;;;;;;;;;5089256;28;20024;-50
2023/02/11 15:56:00;;;;;;;17.95;12.30;;;;;;;;;;5090231;28;20046;-52
2023/02/11 15:58:26;;;;;;;16.92;11.63;;;;;;;;;;5089801;28;20028;-51
2023/02/11 16:00:58;;;;;;;19.60;13.38;;;;;;;;;;5090046;28;20032;-52
2023/02/11 16:03:27;;;;;;;19.30;12.43;;;;;;;;;;5088675;28;20271;-51
2023/02/11 16:05:55;;;;;;;17.75;12.32;;;;;;;;;;5089364;28;20522;-54
2023/02/11 16:08:21;;;;;;;17.20;11.40;;;;;;;;;;5088396;28;20016;-53
2023/02/11 16:10:57;;;;;;;20.77;13.48;;;;;;;;;;5072893;28;20038;-49
2023/02/11 16:13:25;;;;;;;19.13;13.45;;;;;;;;;;5083134;28;20138;-50
2023/02/11 16:15:51;;;;;;;18.60;12.82;;;;;;;;;;5088654;28;20526;-51
2023/02/11 16:18:23;;;;;;;17.95;13.05;;;;;;;;;;5091231;28;20024;-51
2023/02/11 16:20:49;;;;;;;18.33;12.80;;;;;;;;;;5091532;28;20473;-51
2023/02/11 16:23:29;;;;;;;20.08;13.63;;;;;;;;;;5091109;28;20024;-51
2023/02/11 16:26:11;;;;;;;26.85;15.63;;;;;;;;;;5091391;28;20023;-52
2023/02/11 16:28:37;;;;;;;23.83;15.52;;;;;;;;;;5073015;28;20598;-53
2023/02/11 16:31:04;;;;;;;27.10;17.17;;;;;;;;;;5091403;28;20062;-49
2023/02/11 16:33:30;;;;;;;29.08;19.33;;;;;;;;;;5091825;28;20450;-52
2023/02/11 16:35:56;;;;;;;30.63;19.55;;;;;;;;;;5091410;28;20031;-51
2023/02/11 16:38:22;;;;;;;25.90;16.73;;;;;;;;;;5088344;28;20282;-52
2023/02/11 16:40:49;;;;;;;26.75;17.52;;;;;;;;;;5088780;28;20569;-51
2023/02/11 16:43:19;;;;;;;28.60;17.15;;;;;;;;;;5087909;28;20526;-52
2023/02/11 16:45:45;;;;;;;28.23;17.67;;;;;;;;;;5088092;28;20043;-51
2023/02/11 16:48:14;;;;;;;26.10;16.45;;;;;;;;;;5087929;28;20048;-52
2023/02/11 16:50:45;;;;;;;25.50;16.77;;;;;;;;;;5087907;28;20180;-48
2023/02/11 16:53:12;;;;;;;23.60;14.95;;;;;;;;;;5087767;28;20020;-50
2023/02/11 16:55:38;;;;;;;24.48;15.48;;;;;;;;;;5087796;28;20115;-51
2023/02/11 16:58:05;;;;;;;24.15;14.75;;;;;;;;;;5087652;28;20103;-52
2023/02/11 17:00:31;;;;;;;21.55;13.68;;;;;;;;;;5088306;28;20077;-48
2023/02/11 17:02:57;;;;;;;23.20;13.82;;;;;;;;;;5088105;28;20036;-48
2023/02/11 17:05:24;;;;;;;23.00;13.93;;;;;;;;;;5087472;28;20297;-49
2023/02/11 17:07:50;;;;;;;20.73;13.23;;;;;;;;;;5087517;28;20020;-51
2023/02/11 17:10:18;;;;;;;21.98;13.57;;;;;;;;;;5087431;28;20623;-51
2023/02/11 17:12:44;;;;;;;22.27;13.07;;;;;;;;;;5087611;28;20024;-51
2023/02/11 17:15:10;;;;;;;20.50;12.75;;;;;;;;;;5087184;28;20038;-51
2023/02/11 17:17:36;;;;;;;23.20;13.30;;;;;;;;;;5087279;28;20028;-49
2023/02/11 17:20:02;;;;;;;22.77;13.35;;;;;;;;;;5088548;28;20380;-50
2023/02/11 17:22:28;;;;;;;21.23;12.85;;;;;;;;;;5087062;28;20028;-48
2023/02/11 17:24:57;;;;;;;19.02;12.32;;;;;;;;;;5088439;28;20688;-51
2023/02/11 17:27:23;;;;;;;21.65;12.57;;;;;;;;;;5087513;28;20031;-51
2023/02/11 17:29:50;;;;;;;21.67;12.60;;;;;;;;;;5084999;28;20036;-51
2023/02/11 17:32:16;;;;;;;18.67;11.95;;;;;;;;;;5067166;28;20031;-53
2023/02/11 17:34:42;;;;;;;19.95;12.35;;;;;;;;;;5085721;28;20028;-53
2023/02/11 17:37:09;;;;;;;22.17;13.13;;;;;;;;;;5084447;28;20027;-51
2023/02/11 17:39:36;;;;;;;21.45;12.57;;;;;;;;;;5066729;28;20495;-50
2023/02/11 17:42:02;;;;;;;20.27;12.57;;;;;;;;;;5084132;28;20103;-51
2023/02/11 17:44:28;;;;;;;21.48;12.90;;;;;;;;;;5086004;28;20419;-53
2023/02/11 17:46:55;;;;;;;22.88;13.77;;;;;;;;;;5067172;28;20030;-51
2023/02/11 17:49:22;;;;;;;22.95;13.27;;;;;;;;;;5082957;28;20028;-51
2023/02/11 17:51:48;;;;;;;20.77;12.95;;;;;;;;;;5066816;28;20649;-49
2023/02/11 17:54:17;;;;;;;23.02;13.77;;;;;;;;;;5066553;28;20119;-51
2023/02/11 17:56:43;;;;;;;23.55;13.10;;;;;;;;;;5085517;28;20031;-52
2023/02/11 17:59:10;;;;;;;21.73;13.20;;;;;;;;;;5085121;28;20107;-50
2023/02/11 18:01:37;;;;;;;22.88;13.05;;;;;;;;;;5085506;28;20020;-51
2023/02/11 18:04:03;;;;;;;22.95;13.38;;;;;;;;;;5084657;28;20089;-50
2023/02/11 18:06:29;;;;;;;22.13;13.48;;;;;;;;;;5084639;28;20031;-49
2023/02/11 18:09:01;;;;;;;22.40;13.50;;;;;;;;;;5049853;28;20036;-52
2023/02/11 18:11:29;;;;;;;24.50;14.13;;;;;;;;;;5085113;28;20054;-48
2023/02/11 18:13:55;;;;;;;25.10;14.70;;;;;;;;;;5069763;28;20107;-50
2023/02/11 18:16:22;;;;;;;26.45;15.05;;;;;;;;;;5084792;28;20039;-49
2023/02/11 18:18:48;;;;;;;25.65;14.18;;;;;;;;;;5084658;28;20032;-51
2023/02/11 18:21:16;;;;;;;25.38;14.60;;;;;;;;;;5084833;28;20056;-49
2023/02/11 18:23:42;;;;;;;24.48;14.55;;;;;;;;;;5084379;28;20058;-49
2023/02/11 18:26:09;;;;;;;25.73;15.00;;;;;;;;;;5084390;28;20462;-49
2023/02/11 18:28:35;;;;;;;24.98;15.25;;;;;;;;;;5084191;28;20016;-49
2023/02/11 18:31:01;;;;;;;28.20;17.27;;;;;;;;;;5086854;28;20024;-50
2023/02/11 18:33:27;;;;;;;34.67;18.73;;;;;;;;;;5085008;28;20035;-52
2023/02/11 18:35:54;;;;;;;32.60;19.13;;;;;;;;;;5090819;28;20107;-53
2023/02/11 18:38:21;;;;;;;34.42;19.08;;;;;;;;;;5094749;28;20097;-49
2023/02/11 18:40:49;;;;;;;32.67;19.15;;;;;;;;;;5083711;28;20077;-53
2023/02/11 18:43:15;;;;;;;34.03;19.70;;;;;;;;;;5065851;28;20127;-51
2023/02/11 18:45:45;;;;;;;28.52;17.70;;;;;;;;;;5083905;28;20023;-51
2023/02/11 18:48:11;;;;;;;29.50;18.02;;;;;;;;;;5085304;28;20055;-50
2023/02/11 18:50:42;;;;;;;31.88;18.50;;;;;;;;;;5085115;28;20021;-49
2023/02/11 18:53:08;;;;;;;32.42;18.17;;;;;;;;;;5083235;28;20020;-51
2023/02/11 18:55:34;;;;;;;32.72;18.15;;;;;;;;;;5096489;28;20028;-51
2023/02/11 18:58:00;;;;;;;27.13;16.58;;;;;;;;;;5102099;28;20506;-49
2023/02/11 19:00:26;;;;;;;27.10;16.05;;;;;;;;;;5081079;28;20024;-51
2023/02/11 19:02:52;;;;;;;27.08;16.17;;;;;;;;;;5084242;28;20106;-52
2023/02/11 19:05:18;;;;;;;27.77;16.50;;;;;;;;;;5083397;28;20103;-50
2023/02/11 19:07:44;;;;;;;26.15;15.45;;;;;;;;;;5081895;28;20490;-48
2023/02/11 19:10:12;;;;;;;28.98;16.55;;;;;;;;;;5082226;28;20024;-50
2023/02/11 19:12:38;;;;;;;27.35;16.48;;;;;;;;;;5064607;28;20020;-51
2023/02/11 19:15:05;;;;;;;28.35;16.17;;;;;;;;;;5082540;28;20035;-50
2023/02/11 19:17:32;;;;;;;27.40;16.15;;;;;;;;;;5082978;28;20035;-51
2023/02/11 19:19:58;;;;;;;27.45;16.42;;;;;;;;;;5083304;28;20617;-49
2023/02/11 19:22:25;;;;;;;26.88;16.05;;;;;;;;;;5082432;28;20403;-53
2023/02/11 19:24:51;;;;;;;28.10;16.45;;;;;;;;;;5064555;28;20490;-48
2023/02/11 19:27:17;;;;;;;32.20;18.40;;;;;;;;;;5048041;28;20127;-50
2023/02/11 19:29:43;;;;;;;37.60;20.83;;;;;;;;;;5081833;28;20612;-53
2023/02/11 19:32:09;;;;;;;43.05;22.25;;;;;;;;;;5064397;28;20479;-52
2023/02/11 19:34:40;;;;;;;40.53;20.92;;;;;;;;;;5083540;28;20032;-51
2023/02/11 19:37:06;;;;;;;39.10;21.17;;;;;;;;;;5083052;28;20028;-52
2023/02/11 19:39:32;;;;;;;37.78;21.17;;;;;;;;;;5083462;28;20031;-52
2023/02/11 19:41:58;;;;;;;31.45;18.65;;;;;;;;;;5083887;28;20032;-53
2023/02/11 19:44:24;;;;;;;35.13;19.45;;;;;;;;;;5083416;28;20039;-53
2023/02/11 19:46:52;;;;;;;35.75;21.15;;;;;;;;;;5082908;28;20040;-50